createdAt,value
2022-08-05T00:01:00.884Z,96043.09
2022-08-05T00:03:29.157Z,96055.75
2022-08-05T00:06:05.410Z,96047.09
2022-08-05T00:08:47.701Z,96032.88
2022-08-05T00:11:27.969Z,96043.63
2022-08-05T00:13:58.555Z,96039.38
2022-08-05T00:16:35.402Z,96042.28
2022-08-05T00:19:05.248Z,96041.34
2022-08-05T00:21:35.739Z,96035.19
2022-08-05T00:24:10.154Z,96031.81
2022-08-05T00:26:43.341Z,96034.34
2022-08-05T00:29:19.040Z,96034.47
2022-08-05T00:32:10.483Z,96035.34
2022-08-05T00:34:56.798Z,96033.69
2022-08-05T00:37:27.402Z,96024.09
2022-08-05T00:40:17.638Z,96026.34
2022-08-05T00:42:56.030Z,96032.16
2022-08-05T00:45:28.413Z,96027.41
2022-08-05T00:48:07.637Z,96022.56
2022-08-05T00:50:35.870Z,96029.50
2022-08-05T00:53:09.883Z,96028.72
2022-08-05T00:55:52.524Z,96020.06
2022-08-05T00:58:21.931Z,96024.44
2022-08-05T01:00:55.786Z,96021.06
2022-08-05T01:03:24.276Z,96022.66
2022-08-05T01:05:59.219Z,96013.66
2022-08-05T01:08:40.050Z,96017.00
2022-08-05T01:11:13.694Z,96013.63
2022-08-05T01:13:58.935Z,96020.31
2022-08-05T01:16:29.911Z,96014.34
2022-08-05T01:19:01.097Z,96019.50
2022-08-05T01:21:38.592Z,96026.53
2022-08-05T01:24:13.149Z,96020.88
2022-08-05T01:26:49.623Z,96022.88
2022-08-05T01:29:23.154Z,96027.44
2022-08-05T01:31:52.325Z,96030.66
2022-08-05T01:34:21.368Z,96029.94
2022-08-05T01:36:50.897Z,96030.47
2022-08-05T01:39:46.303Z,96033.41
2022-08-05T01:42:07.135Z,96028.41
2022-08-05T01:44:39.147Z,96035.66
2022-08-05T01:47:09.612Z,96029.09
2022-08-05T01:50:01.809Z,96023.34
2022-08-05T01:52:25.661Z,96035.78
2022-08-05T01:54:53.934Z,96025.34
2022-08-05T01:58:12.155Z,96028.16
2022-08-05T02:00:15.762Z,96028.50
2022-08-05T02:02:46.590Z,96020.44
2022-08-05T02:05:23.369Z,96016.72
2022-08-05T02:08:01.152Z,96018.13
2022-08-05T02:10:30.431Z,96022.78
2022-08-05T02:13:01.307Z,96020.94
2022-08-05T02:15:33.586Z,96025.88
2022-08-05T02:18:27.917Z,96028.53
2022-08-05T02:20:53.999Z,96029.34
2022-08-05T02:23:27.963Z,96029.69
2022-08-05T02:25:56.026Z,96033.53
2022-08-05T02:28:28.454Z,96039.28
2022-08-05T02:31:01.727Z,96044.91
2022-08-05T02:33:38.133Z,96040.25
2022-08-05T02:36:09.301Z,96035.41
2022-08-05T02:38:37.563Z,96036.41
2022-08-05T02:41:14.476Z,96035.72
2022-08-05T02:44:02.694Z,96031.53
2022-08-05T02:46:35.242Z,96027.84
2022-08-05T02:49:03.265Z,96029.34
2022-08-05T02:52:03.177Z,96024.06
2022-08-05T02:54:34.523Z,96026.78
2022-08-05T02:57:05.190Z,96018.03
2022-08-05T02:59:50.436Z,96017.53
2022-08-05T03:02:21.927Z,96018.47
2022-08-05T03:04:53.191Z,96014.06
2022-08-05T03:07:40.548Z,96008.66
2022-08-05T03:10:10.150Z,96003.28
2022-08-05T03:12:38.643Z,96007.72
2022-08-05T03:15:07.544Z,96009.94
2022-08-05T03:17:41.720Z,96017.00
2022-08-05T03:20:10.693Z,96023.34
2022-08-05T03:22:44.236Z,96025.06
2022-08-05T03:25:34.055Z,96030.09
2022-08-05T03:28:06.661Z,96022.00
2022-08-05T03:30:36.770Z,96015.25
2022-08-05T03:33:07.743Z,96013.03
2022-08-05T03:35:40.760Z,96015.88
2022-08-05T03:38:09.866Z,96007.56
2022-08-05T03:40:40.903Z,96015.72
2022-08-05T03:43:58.492Z,96021.09
2022-08-05T03:45:57.861Z,96018.59
2022-08-05T03:48:29.160Z,96013.88
2022-08-05T03:51:06.934Z,96008.03
2022-08-05T03:55:52.394Z,96008.00
2022-08-05T03:56:41.299Z,96007.88
2022-08-05T03:59:10.741Z,96008.84
2022-08-05T04:01:40.347Z,96015.50
2022-08-05T04:04:10.890Z,96008.75
2022-08-05T04:06:47.644Z,96009.47
2022-08-05T04:09:20.288Z,96007.25
2022-08-05T04:11:56.694Z,96011.16
2022-08-05T04:14:29.978Z,96021.09
2022-08-05T04:16:59.892Z,96019.75
2022-08-05T04:19:30.386Z,96018.56
2022-08-05T04:22:08.670Z,96021.16
2022-08-05T04:24:44.015Z,96013.84
2022-08-05T04:27:13.339Z,96016.94
2022-08-05T04:29:41.516Z,96014.47
2022-08-05T04:32:10.441Z,96016.63
2022-08-05T04:34:42.830Z,96021.56
2022-08-05T04:37:11.432Z,96028.19
2022-08-05T04:39:40.845Z,96031.06
2022-08-05T04:42:09.429Z,96030.59
2022-08-05T04:44:37.482Z,96041.84
2022-08-05T04:47:09.345Z,96061.66
2022-08-05T04:50:02.467Z,96067.16
2022-08-05T04:52:28.547Z,96066.13
2022-08-05T04:54:57.324Z,96057.09
2022-08-05T04:57:28.937Z,96062.66
2022-08-05T04:59:58.511Z,96065.91
2022-08-05T05:02:36.819Z,96068.69
2022-08-05T05:05:26.431Z,96056.63
2022-08-05T05:08:01.773Z,96055.78
2022-08-05T05:10:30.784Z,96056.03
2022-08-05T05:13:03.651Z,96063.97
2022-08-05T05:15:54.341Z,96069.41
2022-08-05T05:18:28.297Z,96068.84
2022-08-05T05:21:00.476Z,96071.81
2022-08-05T05:23:39.109Z,96076.41
2022-08-05T05:26:16.390Z,96072.44
2022-08-05T05:28:45.120Z,96074.00
2022-08-05T05:31:13.422Z,96068.75
2022-08-05T05:33:58.830Z,96070.19
2022-08-05T05:36:29.846Z,96062.31
2022-08-05T05:38:58.169Z,96063.28
2022-08-05T05:41:40.706Z,96075.38
2022-08-05T05:44:35.848Z,96072.06
2022-08-05T05:46:58.346Z,96077.81
2022-08-05T05:49:33.171Z,96075.88
2022-08-05T05:52:07.252Z,96069.56
2022-08-05T05:54:50.053Z,96075.53
2022-08-05T05:57:19.540Z,96074.13
2022-08-05T05:59:48.873Z,96072.56
2022-08-05T06:02:17.171Z,96072.34
2022-08-05T06:05:01.256Z,96068.13
2022-08-05T06:07:41.851Z,96058.19
2022-08-05T06:10:11.009Z,96055.75
2022-08-05T06:12:42.319Z,96056.88
2022-08-05T06:15:16.544Z,96055.25
2022-08-05T06:17:54.733Z,96058.25
2022-08-05T06:20:23.246Z,96062.06
2022-08-05T06:22:52.644Z,96064.25
2022-08-05T06:25:59.142Z,96066.91
2022-08-05T06:28:12.009Z,96067.16
2022-08-05T06:30:49.129Z,96067.75
2022-08-05T06:33:19.241Z,96066.94
2022-08-05T06:36:04.215Z,96070.13
2022-08-05T06:38:37.289Z,96067.19
2022-08-05T06:41:05.514Z,96065.88
2022-08-05T06:43:58.162Z,96065.84
2022-08-05T06:46:30.233Z,96068.53
2022-08-05T06:48:59.669Z,96073.94
2022-08-05T06:51:30.008Z,96068.78
2022-08-05T06:54:01.751Z,96087.03
2022-08-05T06:56:30.377Z,96072.88
2022-08-05T06:59:02.795Z,96081.88
2022-08-05T07:01:32.700Z,96090.53
2022-08-05T07:04:01.422Z,96089.31
2022-08-05T07:06:30.496Z,96088.00
2022-08-05T07:09:03.780Z,96090.97
2022-08-05T07:11:33.047Z,96096.78
2022-08-05T07:14:29.964Z,96107.09
2022-08-05T07:18:00.752Z,96102.25
2022-08-05T07:20:31.671Z,96110.66
2022-08-05T07:22:38.331Z,96105.75
2022-08-05T07:25:23.685Z,96113.81
2022-08-05T07:28:02.283Z,96128.34
2022-08-05T07:30:38.251Z,96126.25
2022-08-05T07:33:10.163Z,96130.34
2022-08-05T07:36:01.695Z,96134.59
2022-08-05T07:38:34.078Z,96144.31
2022-08-05T07:41:35.245Z,96140.78
2022-08-05T07:43:55.117Z,96139.97
2022-08-05T07:46:26.173Z,96152.53
2022-08-05T07:49:01.679Z,96161.44
2022-08-05T07:51:48.726Z,96160.66
2022-08-05T07:54:31.464Z,96173.72
2022-08-05T07:57:18.148Z,96171.25
2022-08-05T07:59:51.432Z,96185.63
2022-08-05T08:02:19.435Z,96190.63
2022-08-05T08:04:54.993Z,96187.16
2022-08-05T08:07:23.380Z,96184.88
2022-08-05T08:09:55.063Z,96186.16
2022-08-05T08:12:33.507Z,96191.84
2022-08-05T08:15:09.758Z,96192.69
2022-08-05T08:17:46.243Z,96189.13
2022-08-05T08:21:00.051Z,96194.06
2022-08-05T08:24:00.400Z,96207.16
2022-08-05T08:25:59.679Z,96211.25
2022-08-05T08:28:35.691Z,96208.16
2022-08-05T08:31:05.439Z,96214.72
2022-08-05T08:33:36.052Z,96209.88
2022-08-05T08:36:38.127Z,96217.09
2022-08-05T08:38:55.451Z,96208.63
2022-08-05T08:41:26.171Z,96227.13
2022-08-05T08:45:19.798Z,96224.19
2022-08-05T08:47:01.948Z,96232.88
2022-08-05T08:50:14.181Z,96238.38
2022-08-05T08:52:19.022Z,96233.31
2022-08-05T08:54:47.934Z,96245.38
2022-08-05T08:57:15.939Z,96244.94
2022-08-05T08:59:48.894Z,96246.34
2022-08-05T09:02:18.984Z,96251.09
2022-08-05T09:04:58.154Z,96246.91
2022-08-05T09:07:39.770Z,96253.84
2022-08-05T09:10:27.931Z,96251.75
2022-08-05T09:13:04.783Z,96248.09
2022-08-05T09:15:36.959Z,96261.41
2022-08-05T09:18:07.423Z,96257.78
2022-08-05T09:20:38.018Z,96254.00
2022-08-05T09:23:19.612Z,96260.28
2022-08-05T09:26:01.137Z,96257.66
2022-08-05T09:28:33.803Z,96261.44
2022-08-05T09:31:43.748Z,96265.16
2022-08-05T09:33:54.650Z,96277.78
2022-08-05T09:36:27.923Z,96278.81
2022-08-05T09:39:02.919Z,96276.34
2022-08-05T09:41:32.742Z,96270.59
2022-08-05T09:44:01.396Z,96271.50
2022-08-05T09:46:31.164Z,96266.84
2022-08-05T09:49:06.960Z,96261.06
2022-08-05T09:51:48.810Z,96262.13
2022-08-05T09:54:25.717Z,96263.00
2022-08-05T09:56:57.563Z,96266.69
2022-08-05T09:59:27.675Z,96272.13
2022-08-05T10:01:57.896Z,96266.91
2022-08-05T10:04:34.963Z,96266.22
2022-08-05T10:07:25.038Z,96258.69
2022-08-05T10:10:14.379Z,96251.22
2022-08-05T10:12:49.731Z,96260.47
2022-08-05T10:15:22.583Z,96259.81
2022-08-05T10:18:11.313Z,96261.16
2022-08-05T10:20:41.669Z,96267.66
2022-08-05T10:23:34.630Z,96269.69
2022-08-05T10:26:00.133Z,96274.84
2022-08-05T10:28:30.248Z,96275.72
2022-08-05T10:32:52.274Z,96281.59
2022-08-05T10:33:54.084Z,96284.31
2022-08-05T10:36:23.446Z,96290.19
2022-08-05T10:38:55.166Z,96281.22
2022-08-05T10:41:24.352Z,96279.97
2022-08-05T10:43:53.369Z,96284.06
2022-08-05T10:46:23.841Z,96278.06
2022-08-05T10:49:00.495Z,96282.22
2022-08-05T10:51:48.622Z,96293.13
2022-08-05T10:54:47.005Z,96284.13
2022-08-05T10:57:30.960Z,96276.16
2022-08-05T11:00:17.887Z,96279.16
2022-08-05T11:03:23.735Z,96284.69
2022-08-05T11:06:16.115Z,96286.72
2022-08-05T11:09:04.252Z,96282.25
2022-08-05T11:11:44.783Z,96277.44
2022-08-05T11:14:37.279Z,96278.25
2022-08-05T11:17:57.031Z,96271.09
2022-08-05T11:20:34.135Z,96270.38
2022-08-05T11:23:25.244Z,96269.97
2022-08-05T11:26:06.036Z,96271.44
2022-08-05T11:28:43.085Z,96272.53
2022-08-05T11:31:58.705Z,96276.13
2022-08-05T11:34:17.202Z,96275.53
2022-08-05T11:36:53.062Z,96265.88
2022-08-05T11:39:39.787Z,96274.19
2022-08-05T11:42:19.686Z,96269.19
2022-08-05T11:44:53.822Z,96269.34
2022-08-05T11:47:23.339Z,96270.47
2022-08-05T11:50:14.142Z,96266.53
2022-08-05T11:52:43.855Z,96263.97
2022-08-05T11:55:14.005Z,96266.06
2022-08-05T11:58:08.477Z,96254.88
2022-08-05T12:00:38.414Z,96261.97
2022-08-05T12:03:29.461Z,96258.25
2022-08-05T12:06:00.643Z,96253.72
2022-08-05T12:08:31.615Z,96250.44
2022-08-05T12:11:05.553Z,96260.59
2022-08-05T12:13:48.478Z,96246.03
2022-08-05T12:16:25.572Z,96251.50
2022-08-05T12:18:55.319Z,96245.69
2022-08-05T12:21:24.839Z,96246.22
2022-08-05T12:24:05.042Z,96238.47
2022-08-05T12:26:33.970Z,96244.38
2022-08-05T12:29:03.840Z,96237.66
2022-08-05T12:31:43.810Z,96241.81
2022-08-05T12:34:21.167Z,96242.31
2022-08-05T12:36:49.862Z,96237.44
2022-08-05T12:39:18.177Z,96234.22
2022-08-05T12:44:34.361Z,96231.47
2022-08-05T12:47:02.637Z,96228.66
2022-08-05T12:50:04.682Z,96216.94
2022-08-05T12:52:32.319Z,96217.41
2022-08-05T12:55:03.566Z,96218.88
2022-08-05T12:58:38.632Z,96212.69
2022-08-05T13:02:04.443Z,96201.13
2022-08-05T13:03:15.007Z,96196.38
2022-08-05T13:05:43.176Z,96202.78
2022-08-05T13:08:11.208Z,96191.81
2022-08-05T13:10:50.401Z,96192.66
2022-08-05T13:14:06.602Z,96191.81
2022-08-05T13:16:15.328Z,96192.00
2022-08-05T13:18:51.545Z,96199.56
2022-08-05T13:21:19.517Z,96192.50
2022-08-05T13:23:52.149Z,96187.91
2022-08-05T13:26:24.131Z,96190.13
2022-08-05T13:28:59.020Z,96191.22
2022-08-05T13:32:03.430Z,96194.63
2022-08-05T13:34:21.195Z,96190.88
2022-08-05T13:36:51.627Z,96177.44
2022-08-05T13:40:13.513Z,96179.22
2022-08-05T13:42:07.872Z,96183.47
2022-08-05T13:44:45.317Z,96192.06
2022-08-05T13:47:36.147Z,96189.31
2022-08-05T13:50:04.590Z,96174.34
2022-08-05T13:52:35.539Z,96169.88
2022-08-05T13:55:07.669Z,96166.78
2022-08-05T13:57:51.572Z,96165.63
2022-08-05T14:00:26.801Z,96174.84
2022-08-05T14:02:57.842Z,96168.38
2022-08-05T14:05:29.404Z,96161.75
2022-08-05T14:08:20.967Z,96165.00
2022-08-05T14:10:59.840Z,96163.94
2022-08-05T14:13:44.165Z,96151.03
2022-08-05T14:16:16.951Z,96147.22
2022-08-05T14:18:46.612Z,96146.66
2022-08-05T14:22:08.983Z,96140.28
2022-08-05T14:24:02.472Z,96131.41
2022-08-05T14:26:38.420Z,96124.56
2022-08-05T14:29:16.084Z,96134.09
2022-08-05T14:32:03.673Z,96129.47
2022-08-05T14:34:35.673Z,96130.63
2022-08-05T14:37:04.093Z,96123.56
2022-08-05T14:39:49.258Z,96116.69
2022-08-05T14:42:21.085Z,96097.41
2022-08-05T14:44:49.625Z,96101.22
2022-08-05T14:48:03.236Z,96100.44
2022-08-05T14:50:18.381Z,96096.44
2022-08-05T14:52:53.457Z,96098.03
2022-08-05T14:55:38.481Z,96094.06
2022-08-05T14:58:10.873Z,96081.88
2022-08-05T15:00:59.841Z,96079.88
2022-08-05T15:03:34.017Z,96074.50
2022-08-05T15:06:13.502Z,96074.72
2022-08-05T15:09:01.520Z,96076.13
2022-08-05T15:11:51.449Z,96073.13
2022-08-05T15:14:35.937Z,96075.31
2022-08-05T15:17:20.819Z,96072.44
2022-08-05T15:19:57.145Z,96083.97
2022-08-05T15:22:28.179Z,96083.72
2022-08-05T15:24:56.694Z,96090.97
2022-08-05T15:27:25.502Z,96092.13
2022-08-05T15:29:54.216Z,96086.75
2022-08-05T15:32:27.425Z,96099.72
2022-08-05T15:34:56.844Z,96109.19
2022-08-05T15:38:33.475Z,96110.09
2022-08-05T15:40:59.936Z,96112.50
2022-08-05T15:43:10.869Z,96115.38
2022-08-05T15:45:47.995Z,96118.97
2022-08-05T15:48:29.557Z,96112.56
2022-08-05T15:50:57.700Z,96111.59
2022-08-05T15:53:37.847Z,96113.53
2022-08-05T15:56:18.093Z,96113.03
2022-08-05T15:58:46.336Z,96109.28
2022-08-05T16:01:16.947Z,96105.00
2022-08-05T16:03:48.457Z,96100.72
2022-08-05T16:06:20.359Z,96101.81
2022-08-05T16:08:53.477Z,96100.16
2022-08-05T16:11:39.974Z,96104.41
2022-08-05T16:14:17.248Z,96098.63
2022-08-05T16:16:46.169Z,96107.97
2022-08-05T16:19:19.157Z,96110.59
2022-08-05T16:22:02.783Z,96116.00
2022-08-05T16:24:41.050Z,96110.28
2022-08-05T16:27:10.119Z,96104.97
2022-08-05T16:29:50.258Z,96109.13
2022-08-05T16:32:28.305Z,96109.75
2022-08-05T16:34:57.009Z,96115.44
2022-08-05T16:38:02.384Z,96110.72
2022-08-05T16:40:25.315Z,96108.78
2022-08-05T16:42:57.515Z,96119.50
2022-08-05T16:46:03.445Z,96121.16
2022-08-05T16:48:25.879Z,96126.16
2022-08-05T16:51:01.383Z,96116.28
2022-08-05T16:53:32.433Z,96112.59
2022-08-05T16:56:18.689Z,96116.72
2022-08-05T16:58:47.746Z,96112.22
2022-08-05T17:01:15.850Z,96118.50
2022-08-05T17:03:44.056Z,96119.00
2022-08-05T17:06:12.037Z,96127.59
2022-08-05T17:08:52.233Z,96110.84
2022-08-05T17:11:25.170Z,96118.28
2022-08-05T17:14:00.566Z,96131.78
2022-08-05T17:16:36.689Z,96129.22
2022-08-05T17:19:07.651Z,96125.50
2022-08-05T17:21:39.520Z,96112.78
2022-08-05T17:24:30.196Z,96114.03
2022-08-05T17:26:58.348Z,96115.88
2022-08-05T17:29:39.900Z,96125.16
2022-08-05T17:32:11.927Z,96122.22
2022-08-05T17:34:46.140Z,96123.13
2022-08-05T17:37:39.800Z,96117.03
2022-08-05T17:40:02.379Z,96116.69
2022-08-05T17:42:33.074Z,96119.31
2022-08-05T17:45:17.916Z,96127.78
2022-08-05T17:47:54.951Z,96120.72
2022-08-05T17:50:28.733Z,96123.69
2022-08-05T17:53:01.080Z,96131.28
2022-08-05T17:55:37.569Z,96136.00
2022-08-05T17:58:09.575Z,96129.97
2022-08-05T18:00:39.953Z,96135.44
2022-08-05T18:03:13.116Z,96132.31
2022-08-05T18:05:56.499Z,96138.50
2022-08-05T18:08:29.998Z,96143.13
2022-08-05T18:10:58.423Z,96148.81
2022-08-05T18:13:27.794Z,96149.06
2022-08-05T18:16:05.240Z,96151.75
2022-08-05T18:18:39.791Z,96152.66
2022-08-05T18:21:13.304Z,96161.19
2022-08-05T18:23:48.154Z,96161.00
2022-08-05T18:26:18.727Z,96160.63
2022-08-05T18:28:48.284Z,96156.84
2022-08-05T18:31:16.941Z,96159.59
2022-08-05T18:33:47.019Z,96164.06
2022-08-05T18:36:15.842Z,96168.31
2022-08-05T18:38:43.962Z,96173.75
2022-08-05T18:41:55.276Z,96164.69
2022-08-05T18:44:06.370Z,96167.31
2022-08-05T18:46:35.919Z,96168.09
2022-08-05T18:49:30.754Z,96167.19
2022-08-05T18:52:32.962Z,96163.63
2022-08-05T18:55:02.087Z,96172.03
2022-08-05T18:57:42.923Z,96169.34
2022-08-05T19:00:27.033Z,96174.59
2022-08-05T19:02:57.396Z,96175.03
2022-08-05T19:06:11.320Z,96171.66
2022-08-05T19:08:21.481Z,96168.00
2022-08-05T19:10:49.806Z,96175.88
2022-08-05T19:13:17.784Z,96178.72
2022-08-05T19:16:00.164Z,96190.16
2022-08-05T19:18:31.928Z,96193.38
2022-08-05T19:21:00.425Z,96205.94
2022-08-05T19:24:05.216Z,96201.78
2022-08-05T19:26:19.708Z,96200.34
2022-08-05T19:28:47.762Z,96196.75
2022-08-05T19:31:21.425Z,96194.34
2022-08-05T19:33:56.809Z,96207.22
2022-08-05T19:36:25.268Z,96213.22
2022-08-05T19:38:54.374Z,96221.16
2022-08-05T19:41:34.726Z,96208.38
2022-08-05T19:44:13.761Z,96201.59
2022-08-05T19:46:43.782Z,96201.16
2022-08-05T19:49:12.431Z,96213.81
2022-08-05T19:52:09.101Z,96223.41
2022-08-05T19:54:34.129Z,96238.41
2022-08-05T19:57:06.471Z,96240.09
2022-08-05T19:59:59.333Z,96249.38
2022-08-05T20:02:26.986Z,96262.44
2022-08-05T20:04:58.754Z,96285.66
2022-08-05T20:07:46.515Z,96298.34
2022-08-05T20:10:16.542Z,96304.69
2022-08-05T20:12:48.339Z,96315.59
2022-08-05T20:15:48.272Z,96334.13
2022-08-05T20:18:10.520Z,96363.47
2022-08-05T20:20:56.209Z,96436.09
2022-08-05T20:23:40.738Z,96459.34
2022-08-05T20:26:15.862Z,96404.53
2022-08-05T20:28:45.372Z,96422.19
2022-08-05T20:31:13.640Z,96443.63
2022-08-05T20:36:31.199Z,96481.75
2022-08-05T20:39:00.737Z,96476.00
2022-08-05T20:41:43.452Z,96492.28
2022-08-05T20:44:19.055Z,96486.19
2022-08-05T20:46:57.714Z,96500.97
2022-08-05T20:49:27.219Z,96500.88
2022-08-05T20:51:55.244Z,96503.78
2022-08-05T20:54:24.631Z,96496.59
2022-08-05T20:56:52.817Z,96504.00
2022-08-05T20:59:27.164Z,96505.88
2022-08-05T21:02:09.023Z,96510.22
2022-08-05T21:04:40.639Z,96506.84
2022-08-05T21:07:09.108Z,96503.72
2022-08-05T21:09:37.253Z,96508.47
2022-08-05T21:12:20.175Z,96526.31
2022-08-05T21:14:48.203Z,96520.22
2022-08-05T21:17:16.287Z,96530.75
2022-08-05T21:19:47.896Z,96538.75
2022-08-05T21:22:23.434Z,96537.09
2022-08-05T21:24:52.647Z,96533.19
2022-08-05T21:27:25.050Z,96523.47
2022-08-05T21:29:53.957Z,96516.50
2022-08-05T21:32:23.347Z,96536.69
2022-08-05T21:34:55.928Z,96557.22
2022-08-05T21:37:41.086Z,96568.06
2022-08-05T21:40:13.661Z,96574.81
2022-08-05T21:42:44.938Z,96577.97
2022-08-05T21:45:25.138Z,96597.16
2022-08-05T21:48:06.422Z,96591.97
2022-08-05T21:50:37.465Z,96585.69
2022-08-05T21:53:17.469Z,96580.25
2022-08-05T21:56:06.301Z,96586.66
2022-08-05T21:58:33.894Z,96586.66
2022-08-05T22:01:02.212Z,96604.53
2022-08-05T22:03:52.660Z,96601.94
2022-08-05T22:06:22.465Z,96607.97
2022-08-05T22:08:52.122Z,96613.97
2022-08-05T22:11:34.932Z,96604.25
2022-08-05T22:14:05.898Z,96602.09
2022-08-05T22:16:55.978Z,96608.97
2022-08-05T22:20:00.131Z,96613.19
2022-08-05T22:22:16.514Z,96604.38
2022-08-05T22:25:18.109Z,96602.59
2022-08-05T22:28:10.496Z,96593.22
2022-08-05T22:30:55.436Z,96592.91
2022-08-05T22:33:57.255Z,96589.41
2022-08-05T22:36:14.690Z,96593.56
2022-08-05T22:38:48.304Z,96605.25
2022-08-05T22:42:04.266Z,96613.53
2022-08-05T22:44:05.677Z,96613.03
2022-08-05T22:46:33.816Z,96615.38
2022-08-05T22:49:23.394Z,96629.41
2022-08-05T22:52:06.101Z,96622.03
2022-08-05T22:54:37.250Z,96607.69
2022-08-05T22:57:07.291Z,96623.41
2022-08-05T22:59:46.114Z,96630.66
2022-08-05T23:02:29.061Z,96635.22
2022-08-05T23:05:01.502Z,96647.94
2022-08-05T23:07:32.908Z,96646.91
2022-08-05T23:10:15.146Z,96658.06
2022-08-05T23:12:43.926Z,96660.13
2022-08-05T23:15:12.399Z,96661.34
2022-08-05T23:18:01.314Z,96656.75
2022-08-05T23:20:28.587Z,96651.97
2022-08-05T23:22:58.629Z,96650.47
2022-08-05T23:25:52.395Z,96644.66
2022-08-05T23:28:17.370Z,96654.31
2022-08-05T23:30:53.374Z,96651.97
2022-08-05T23:33:26.335Z,96656.81
2022-08-05T23:36:13.847Z,96660.66
2022-08-05T23:38:42.812Z,96654.59
2022-08-05T23:41:13.018Z,96653.28
2022-08-05T23:44:08.571Z,96655.66
2022-08-05T23:46:29.690Z,96648.84
2022-08-05T23:48:59.988Z,96655.16
2022-08-05T23:51:53.516Z,96659.13
2022-08-05T23:54:25.468Z,96653.16
2022-08-05T23:56:57.093Z,96659.19
